Time;durP1;ratioP1;P1;durP2;ratioP2;P2;SDS_P1;SDS_P2;PMS_P1;PMS_P2;Temp;Humidity;BMP_temperature;BMP_pressure;BME280_temperature;BME280_humidity;BME280_pressure;Samples;Min_cycle;Max_cycle;Signal;HPM_P1;HPM_P2
2022/04/06 00:00:30;;;;;;;9.02;8.05;;;11.40;99.90;;;;;;5072662;28;20254;-67
2022/04/06 00:02:57;;;;;;;9.13;8.25;;;11.40;99.90;;;;;;5072812;28;20219;-68
2022/04/06 00:05:24;;;;;;;7.88;7.07;;;11.40;99.90;;;;;;5073442;28;20199;-67
2022/04/06 00:07:51;;;;;;;8.80;8.00;;;11.40;99.90;;;;;;5073194;28;20202;-67
2022/04/06 00:10:18;;;;;;;8.60;7.80;;;11.40;99.90;;;;;;5072447;28;20313;-67
2022/04/06 00:12:46;;;;;;;8.40;7.50;;;11.40;99.90;;;;;;5072513;28;20203;-67
2022/04/06 00:15:13;;;;;;;9.10;8.27;;;11.40;99.90;;;;;;5073116;28;20569;-66
2022/04/06 00:17:40;;;;;;;8.77;7.97;;;11.40;99.90;;;;;;5073112;28;20202;-67
2022/04/06 00:20:09;;;;;;;8.70;7.80;;;11.40;99.90;;;;;;5072322;28;20226;-67
2022/04/06 00:22:35;;;;;;;8.20;7.43;;;11.30;99.90;;;;;;5072463;28;20580;-68
2022/04/06 00:25:02;;;;;;;8.18;7.47;;;11.30;99.90;;;;;;5072776;28;20740;-68
2022/04/06 00:27:29;;;;;;;7.78;7.07;;;11.30;99.90;;;;;;5072517;28;20214;-67
2022/04/06 00:29:57;;;;;;;8.65;7.85;;;11.40;99.90;;;;;;5072534;28;20304;-67
2022/04/06 00:32:25;;;;;;;7.72;7.00;;;11.30;99.90;;;;;;5072154;28;20681;-68
2022/04/06 00:37:36;;;;;;;8.95;8.05;;;11.40;99.90;;;;;;5072831;28;20672;-67
2022/04/06 00:40:04;;;;;;;9.55;8.55;;;11.30;99.90;;;;;;5071932;28;20716;-66
2022/04/06 00:42:31;;;;;;;7.85;7.07;;;11.30;99.90;;;;;;5072080;28;20715;-66
2022/04/06 00:45:00;;;;;;;7.88;7.18;;;11.30;99.90;;;;;;5072647;28;20252;-67
2022/04/06 00:47:26;;;;;;;8.60;7.75;;;11.30;99.90;;;;;;5072646;28;20203;-68
2022/04/06 00:49:53;;;;;;;7.10;6.50;;;11.30;99.90;;;;;;5071455;28;20233;-67
2022/04/06 00:52:21;;;;;;;7.13;6.43;;;11.40;99.90;;;;;;5071556;28;20205;-66
2022/04/06 00:54:49;;;;;;;8.07;7.38;;;11.40;99.90;;;;;;5072576;28;20684;-68
2022/04/06 00:57:19;;;;;;;8.38;7.57;;;11.40;99.90;;;;;;5072355;28;20199;-67
2022/04/06 00:59:48;;;;;;;8.20;7.40;;;11.40;99.90;;;;;;5071980;28;20727;-67
2022/04/06 01:02:16;;;;;;;8.15;7.45;;;11.40;99.90;;;;;;5071717;28;20229;-68
2022/04/06 01:04:43;;;;;;;8.15;7.35;;;11.40;99.90;;;;;;5072279;28;20550;-67
2022/04/06 01:07:10;;;;;;;7.97;6.78;;;11.30;99.90;;;;;;5072494;28;20588;-67
2022/04/06 01:09:37;;;;;;;7.50;6.80;;;11.40;99.90;;;;;;5072117;28;20218;-67
2022/04/06 01:12:05;;;;;;;7.70;7.00;;;11.40;99.90;;;;;;5071954;28;20208;-67
2022/04/06 01:14:32;;;;;;;7.68;7.00;;;11.40;99.90;;;;;;5071967;28;20289;-68
2022/04/06 01:17:00;;;;;;;8.45;7.63;;;11.40;99.90;;;;;;5072240;28;20664;-67
2022/04/06 01:19:36;;;;;;;7.22;6.60;;;11.40;99.90;;;;;;5071905;28;20222;-66
2022/04/06 01:22:07;;;;;;;8.40;7.50;;;11.40;99.90;;;;;;5080037;28;20201;-67
2022/04/06 01:24:34;;;;;;;8.27;6.82;;;11.40;99.90;;;;;;5093382;28;20222;-67
2022/04/06 01:27:02;;;;;;;8.00;7.20;;;11.40;99.90;;;;;;5093340;28;20625;-67
2022/04/06 01:29:29;;;;;;;7.75;7.05;;;11.30;99.90;;;;;;5093378;28;20718;-67
2022/04/06 01:31:55;;;;;;;8.00;7.20;;;11.30;99.90;;;;;;5093482;28;20202;-67
2022/04/06 01:34:23;;;;;;;7.65;7.00;;;11.30;99.90;;;;;;5093330;28;20198;-67
2022/04/06 01:36:49;;;;;;;7.90;7.10;;;11.30;99.90;;;;;;5093441;28;20213;-67
2022/04/06 01:39:17;;;;;;;8.00;7.30;;;11.30;99.90;;;;;;5093281;28;20204;-67
2022/04/06 01:41:44;;;;;;;8.00;7.10;;;11.30;99.90;;;;;;5093470;28;20292;-67
2022/04/06 01:44:11;;;;;;;7.32;6.70;;;11.30;99.90;;;;;;5092973;28;20229;-67
2022/04/06 01:46:38;;;;;;;9.25;8.40;;;11.30;99.90;;;;;;5093274;28;20219;-67
2022/04/06 01:54:34;;;;;;;8.45;7.65;;;11.40;99.90;;;;;;5092971;28;20188;-67
2022/04/06 01:57:01;;;;;;;8.27;7.47;;;11.40;99.90;;;;;;5093179;28;20198;-67
2022/04/06 01:59:28;;;;;;;8.02;7.22;;;11.30;99.90;;;;;;5093133;28;20228;-67
2022/04/06 02:01:55;;;;;;;8.05;7.35;;;11.40;99.90;;;;;;5094223;28;20206;-67
2022/04/06 02:04:22;;;;;;;8.10;7.40;;;11.40;99.90;;;;;;5096582;28;20218;-68
2022/04/06 02:06:49;;;;;;;7.47;6.85;;;11.40;99.90;;;;;;5096932;28;20209;-67
2022/04/06 02:09:16;;;;;;;8.98;7.60;;;11.40;99.90;;;;;;5096835;28;20206;-68
2022/04/06 02:11:45;;;;;;;8.38;7.57;;;11.40;99.90;;;;;;5096877;28;20300;-67
2022/04/06 02:14:13;;;;;;;9.88;7.38;;;11.40;99.90;;;;;;5096404;28;20682;-67
2022/04/06 02:16:39;;;;;;;8.23;7.43;;;11.40;99.90;;;;;;5096728;28;20198;-68
2022/04/06 02:19:06;;;;;;;8.45;7.65;;;11.40;99.90;;;;;;5096603;28;20198;-67
2022/04/06 02:21:33;;;;;;;8.05;7.35;;;11.40;99.90;;;;;;5096412;28;20202;-67
2022/04/06 02:24:00;;;;;;;8.07;7.38;;;11.50;99.90;;;;;;5096172;28;20218;-67
2022/04/06 02:26:27;;;;;;;8.63;7.82;;;11.50;99.90;;;;;;5096276;28;20206;-67
2022/04/06 02:28:56;;;;;;;8.13;7.38;;;11.40;99.90;;;;;;5096215;28;20205;-67
2022/04/06 02:31:23;;;;;;;8.85;8.05;;;11.40;99.90;;;;;;5096135;28;20222;-67
2022/04/06 02:33:50;;;;;;;8.25;7.43;;;11.40;99.90;;;;;;5096014;28;20674;-68
2022/04/06 02:36:17;;;;;;;8.70;7.90;;;11.40;99.90;;;;;;5096299;28;20668;-67
2022/04/06 02:38:44;;;;;;;8.30;7.50;;;11.40;99.90;;;;;;5096262;28;20256;-67
2022/04/06 02:41:11;;;;;;;8.15;7.35;;;11.40;99.90;;;;;;5096971;28;20564;-67
2022/04/06 02:43:38;;;;;;;7.68;6.88;;;11.40;99.90;;;;;;5095906;28;20229;-67
2022/04/06 02:46:07;;;;;;;7.57;6.97;;;11.50;99.90;;;;;;5096160;28;20298;-67
2022/04/06 02:48:34;;;;;;;7.80;7.10;;;11.50;99.90;;;;;;5096053;28;20198;-67
2022/04/06 02:51:01;;;;;;;8.32;7.53;;;11.50;99.90;;;;;;5095902;28;20226;-67
2022/04/06 02:53:27;;;;;;;7.95;7.25;;;11.50;99.90;;;;;;5095656;28;20198;-67
2022/04/06 02:55:54;;;;;;;8.60;7.68;;;11.50;99.90;;;;;;5095983;28;20550;-67
2022/04/06 02:58:21;;;;;;;8.45;7.75;;;11.40;99.90;;;;;;5095972;28;20198;-67
2022/04/06 03:00:48;;;;;;;8.38;7.57;;;11.40;99.90;;;;;;5095868;28;20583;-67
2022/04/06 03:03:16;;;;;;;8.70;7.90;;;11.40;99.90;;;;;;5095604;28;20658;-67
2022/04/06 03:05:43;;;;;;;10.35;8.57;;;11.40;99.90;;;;;;5095783;28;20288;-67
2022/04/06 03:08:10;;;;;;;8.93;8.02;;;11.30;99.90;;;;;;5095505;28;20212;-67
2022/04/06 03:10:37;;;;;;;8.15;7.35;;;11.30;99.90;;;;;;5095709;28;20222;-67
2022/04/06 03:13:04;;;;;;;11.27;8.40;;;11.30;99.90;;;;;;5094804;28;20198;-67
2022/04/06 03:15:31;;;;;;;8.82;8.02;;;11.30;99.90;;;;;;5095316;28;20202;-67
2022/04/06 03:17:58;;;;;;;8.45;7.60;;;11.30;99.90;;;;;;5095538;28;20567;-67
2022/04/06 03:20:26;;;;;;;8.55;7.75;;;11.30;99.90;;;;;;5095384;28;20226;-67
2022/04/06 03:22:53;;;;;;;8.15;7.45;;;11.30;99.90;;;;;;5095368;28;20237;-67
2022/04/06 03:25:20;;;;;;;8.55;7.30;;;11.30;99.90;;;;;;5095026;28;20234;-67
2022/04/06 03:27:47;;;;;;;10.95;7.53;;;11.30;99.90;;;;;;5095024;28;20227;-68
2022/04/06 03:30:14;;;;;;;8.32;7.63;;;11.30;99.90;;;;;;5095553;28;20226;-67
2022/04/06 03:32:42;;;;;;;8.80;8.00;;;11.30;99.90;;;;;;5094939;28;20233;-67
2022/04/06 03:35:09;;;;;;;8.10;7.30;;;11.30;99.90;;;;;;5094727;28;20678;-67
2022/04/06 03:37:38;;;;;;;12.05;10.15;;;11.30;99.90;;;;;;5094912;28;20679;-67
2022/04/06 03:40:06;;;;;;;8.80;7.90;;;11.30;99.90;;;;;;5094749;28;20275;-67
2022/04/06 03:42:34;;;;;;;8.50;7.45;;;11.30;99.90;;;;;;5094810;28;20664;-67
2022/04/06 03:45:01;;;;;;;9.25;7.50;;;11.40;99.90;;;;;;5094690;28;20719;-67
2022/04/06 03:47:29;;;;;;;8.80;7.90;;;11.40;99.90;;;;;;5094849;28;20208;-67
2022/04/06 03:49:56;;;;;;;8.60;7.78;;;11.40;99.90;;;;;;5094908;28;20232;-67
2022/04/06 03:52:23;;;;;;;8.85;7.95;;;11.40;99.90;;;;;;5094847;28;20289;-67
2022/04/06 03:54:51;;;;;;;8.90;8.00;;;11.40;99.90;;;;;;5094501;28;20697;-67
2022/04/06 03:57:18;;;;;;;8.05;7.25;;;11.40;99.90;;;;;;5094646;28;20293;-67
2022/04/06 03:59:45;;;;;;;8.07;7.28;;;11.40;99.90;;;;;;5094558;28;20267;-67
2022/04/06 04:02:12;;;;;;;8.15;7.35;;;11.30;99.90;;;;;;5094500;28;20201;-67
2022/04/06 04:04:39;;;;;;;8.68;7.78;;;11.30;99.90;;;;;;5094418;28;20222;-67
2022/04/06 04:07:07;;;;;;;8.75;7.93;;;11.30;99.90;;;;;;5094437;28;20723;-67
2022/04/06 04:09:34;;;;;;;9.35;8.35;;;11.30;99.90;;;;;;5094453;28;20222;-67
2022/04/06 04:12:03;;;;;;;8.95;8.05;;;11.30;99.90;;;;;;5094595;28;20247;-67
2022/04/06 04:14:32;;;;;;;14.27;12.32;;;11.30;99.90;;;;;;5094003;28;20208;-67
2022/04/06 04:16:59;;;;;;;9.02;8.20;;;11.30;99.90;;;;;;5094126;28;20668;-67
2022/04/06 04:19:25;;;;;;;9.07;8.27;;;11.30;99.90;;;;;;5094300;28;20222;-67
2022/04/06 04:21:52;;;;;;;8.10;7.40;;;11.30;99.90;;;;;;5094084;28;20686;-67
2022/04/06 04:24:19;;;;;;;9.60;8.60;;;11.40;99.90;;;;;;5093739;28;20222;-67
2022/04/06 04:26:46;;;;;;;8.88;7.97;;;11.30;99.90;;;;;;5093824;28;20292;-68
2022/04/06 04:29:14;;;;;;;9.23;8.02;;;11.30;99.90;;;;;;5094181;28;20281;-67
2022/04/06 04:31:41;;;;;;;10.63;8.27;;;11.40;99.90;;;;;;5094257;28;20209;-67
2022/04/06 04:34:08;;;;;;;8.75;7.85;;;11.40;99.90;;;;;;5093831;28;20663;-67
2022/04/06 04:36:35;;;;;;;8.38;7.60;;;11.40;99.90;;;;;;5094087;28;20202;-67
2022/04/06 04:39:02;;;;;;;8.60;7.20;;;11.40;99.90;;;;;;5093979;28;20296;-67
2022/04/06 04:41:29;;;;;;;8.50;7.72;;;11.30;99.90;;;;;;5094044;28;20197;-67
2022/04/06 04:43:56;;;;;;;9.98;8.07;;;11.30;99.90;;;;;;5093539;28;20218;-67
2022/04/06 04:46:25;;;;;;;8.30;7.50;;;11.30;99.90;;;;;;5093971;28;20537;-67
2022/04/06 04:48:51;;;;;;;8.38;7.50;;;11.30;99.90;;;;;;5093716;28;20297;-67
2022/04/06 04:51:19;;;;;;;8.20;7.50;;;11.20;99.90;;;;;;5093552;28;20218;-67
2022/04/06 04:53:45;;;;;;;7.85;6.97;;;11.30;99.90;;;;;;5093647;28;20284;-67
2022/04/06 04:56:12;;;;;;;9.30;8.38;;;11.30;99.90;;;;;;5093754;28;20293;-67
2022/04/06 04:58:39;;;;;;;9.07;7.45;;;11.30;99.90;;;;;;5093818;28;20289;-67
2022/04/06 05:01:07;;;;;;;8.02;7.15;;;11.30;99.90;;;;;;5093447;28;20771;-67
2022/04/06 05:03:35;;;;;;;18.48;14.15;;;11.30;99.90;;;;;;5093453;28;20631;-67
2022/04/06 05:06:02;;;;;;;9.30;7.18;;;11.30;99.90;;;;;;5093681;28;20198;-67
2022/04/06 05:08:28;;;;;;;7.57;6.97;;;11.40;99.90;;;;;;5093615;28;20678;-67
2022/04/06 05:10:55;;;;;;;8.35;7.55;;;11.40;99.90;;;;;;5093665;28;20248;-67
2022/04/06 05:13:22;;;;;;;8.30;7.38;;;11.40;99.90;;;;;;5093475;28;20201;-67
2022/04/06 05:15:49;;;;;;;8.05;7.10;;;11.40;99.90;;;;;;5093680;28;20294;-67
2022/04/06 05:18:16;;;;;;;7.65;6.95;;;11.50;99.90;;;;;;5093561;28;20197;-67
2022/04/06 05:20:44;;;;;;;7.45;6.82;;;11.50;99.90;;;;;;5093456;28;20226;-67
2022/04/06 05:23:11;;;;;;;8.48;7.57;;;11.50;99.90;;;;;;5093157;28;20202;-68
2022/04/06 05:25:37;;;;;;;8.13;7.15;;;11.40;99.90;;;;;;5093457;28;20232;-67
2022/04/06 05:28:05;;;;;;;8.63;7.82;;;11.40;99.90;;;;;;5093353;28;20576;-68
2022/04/06 05:30:33;;;;;;;12.07;10.77;;;11.40;99.90;;;;;;5093454;28;20228;-67
2022/04/06 05:33:00;;;;;;;10.20;9.18;;;11.40;99.90;;;;;;5093195;28;20205;-67
2022/04/06 05:35:27;;;;;;;10.10;8.02;;;11.40;99.90;;;;;;5093391;28;20205;-67
2022/04/06 05:37:58;;;;;;;8.70;7.80;;;11.40;99.90;;;;;;5096072;28;20208;-67
2022/04/06 05:40:25;;;;;;;8.02;7.22;;;11.40;99.90;;;;;;5097390;28;20225;-67
2022/04/06 05:42:53;;;;;;;8.70;7.82;;;11.30;99.90;;;;;;5097175;28;20660;-67
2022/04/06 05:45:19;;;;;;;8.60;7.70;;;11.40;99.90;;;;;;5096974;28;20651;-68
2022/04/06 05:47:46;;;;;;;9.25;8.45;;;11.40;99.90;;;;;;5097156;28;20293;-68
2022/04/06 05:50:14;;;;;;;16.15;12.93;;;11.40;99.90;;;;;;5097025;28;20233;-68
2022/04/06 05:52:41;;;;;;;9.02;8.13;;;11.50;99.90;;;;;;5096968;28;20209;-67
2022/04/06 05:55:10;;;;;;;9.27;8.38;;;11.40;99.90;;;;;;5097027;28;20202;-67
2022/04/06 05:57:37;;;;;;;8.77;7.93;;;11.50;99.90;;;;;;5097071;28;20202;-67
2022/04/06 06:00:06;;;;;;;8.88;8.07;;;11.60;99.90;;;;;;5097192;28;20230;-67
2022/04/06 06:02:34;;;;;;;9.55;8.55;;;11.60;99.90;;;;;;5096981;28;20401;-67
2022/04/06 06:05:00;;;;;;;9.30;8.40;;;11.70;99.90;;;;;;5096315;28;20222;-67
2022/04/06 06:07:27;;;;;;;9.52;8.73;;;11.70;99.90;;;;;;5096849;28;20236;-67
2022/04/06 06:09:54;;;;;;;9.15;8.38;;;11.70;99.90;;;;;;5096467;28;20700;-67
2022/04/06 06:12:22;;;;;;;10.55;8.90;;;11.80;99.90;;;;;;5096572;28;20240;-67
2022/04/06 06:14:49;;;;;;;10.32;8.93;;;11.80;99.90;;;;;;5096714;28;20198;-68
2022/04/06 06:17:16;;;;;;;10.57;9.57;;;11.80;99.90;;;;;;5096704;28;20206;-67
2022/04/06 06:19:43;;;;;;;10.60;9.50;;;11.80;99.90;;;;;;5096378;28;20228;-67
2022/04/06 06:22:09;;;;;;;10.10;9.20;;;11.90;99.90;;;;;;5096661;28;20202;-67
2022/04/06 06:24:36;;;;;;;10.85;9.85;;;11.90;99.90;;;;;;5096371;28;20299;-67
2022/04/06 06:27:04;;;;;;;11.20;9.98;;;12.00;99.90;;;;;;5096404;28;20296;-68
2022/04/06 06:29:33;;;;;;;10.60;9.48;;;11.90;99.90;;;;;;5096391;28;20367;-67
2022/04/06 06:31:59;;;;;;;9.73;8.82;;;11.90;99.90;;;;;;5096547;28;20202;-68
2022/04/06 06:34:26;;;;;;;10.57;8.55;;;11.90;99.90;;;;;;5096025;28;20655;-67
2022/04/06 06:36:53;;;;;;;11.50;8.50;;;11.90;99.90;;;;;;5096380;28;20396;-68
2022/04/06 06:39:20;;;;;;;9.30;8.40;;;11.90;99.90;;;;;;5096273;28;20630;-67
2022/04/06 06:41:47;;;;;;;11.63;10.52;;;12.00;99.90;;;;;;5096023;28;20204;-67
2022/04/06 06:44:14;;;;;;;17.20;12.63;;;12.00;99.90;;;;;;5095847;28;20226;-67
2022/04/06 06:46:42;;;;;;;9.65;8.75;;;12.00;99.90;;;;;;5096130;28;20279;-68
2022/04/06 06:49:10;;;;;;;8.32;7.53;;;12.10;99.90;;;;;;5096031;28;20209;-67
2022/04/06 06:51:39;;;;;;;8.55;7.65;;;12.10;99.90;;;;;;5096190;28;20265;-67
2022/04/06 06:54:06;;;;;;;8.30;7.60;;;12.00;99.90;;;;;;5095748;28;20241;-68
2022/04/06 06:56:33;;;;;;;7.55;6.95;;;12.00;99.90;;;;;;5095898;28;20209;-67
2022/04/06 06:59:00;;;;;;;7.88;7.05;;;12.10;99.90;;;;;;5095680;28;20289;-67
2022/04/06 07:01:27;;;;;;;8.85;7.95;;;12.10;99.90;;;;;;5095976;28;20205;-67
2022/04/06 07:03:55;;;;;;;9.45;8.55;;;12.10;99.90;;;;;;5095626;28;20573;-67
2022/04/06 07:06:22;;;;;;;8.00;7.30;;;12.20;99.90;;;;;;5095826;28;20198;-67
2022/04/06 07:08:48;;;;;;;7.85;7.03;;;12.20;99.90;;;;;;5095801;28;20296;-68
2022/04/06 07:11:15;;;;;;;7.03;6.43;;;12.30;99.90;;;;;;5095685;28;20226;-67
2022/04/06 07:13:42;;;;;;;7.45;6.75;;;12.40;99.90;;;;;;5095420;28;20219;-68
2022/04/06 07:16:10;;;;;;;7.18;6.47;;;12.50;99.90;;;;;;5095637;28;20289;-68
2022/04/06 07:18:37;;;;;;;6.60;6.00;;;12.50;99.90;;;;;;5095600;28;20300;-67
2022/04/06 07:21:05;;;;;;;5.93;5.43;;;12.50;99.90;;;;;;5095557;28;20295;-67
2022/04/06 07:23:33;;;;;;;6.20;5.70;;;12.60;99.90;;;;;;5095300;28;20576;-67
2022/04/06 07:26:00;;;;;;;6.03;5.30;;;12.70;99.90;;;;;;5095336;28;20611;-67
2022/04/06 07:28:27;;;;;;;5.03;4.53;;;12.70;99.90;;;;;;5095087;28;20206;-67
2022/04/06 07:30:53;;;;;;;5.15;4.63;;;12.70;99.90;;;;;;5095312;28;20228;-67
2022/04/06 07:33:20;;;;;;;5.65;4.53;;;12.80;99.90;;;;;;5094986;28;20208;-68
2022/04/06 07:35:47;;;;;;;5.25;4.70;;;12.80;99.90;;;;;;5095110;28;20653;-68
2022/04/06 07:38:15;;;;;;;5.07;4.68;;;12.80;99.90;;;;;;5095299;28;20205;-67
2022/04/06 07:40:42;;;;;;;4.47;4.07;;;12.80;99.90;;;;;;5094833;28;20233;-68
2022/04/06 07:43:14;;;;;;;4.93;4.43;;;12.80;99.90;;;;;;5094909;28;20201;-68
2022/04/06 07:45:41;;;;;;;5.53;5.05;;;12.80;99.90;;;;;;5094986;28;20260;-67
2022/04/06 07:48:09;;;;;;;4.60;4.25;;;12.80;99.90;;;;;;5094837;28;20549;-67
2022/04/06 07:50:36;;;;;;;4.63;4.15;;;12.80;99.90;;;;;;5095332;28;20684;-67
2022/04/06 07:53:03;;;;;;;4.88;4.45;;;12.80;99.90;;;;;;5094478;28;20686;-67
2022/04/06 07:55:31;;;;;;;4.80;4.40;;;12.80;99.90;;;;;;5094842;28;20220;-67
2022/04/06 07:57:58;;;;;;;4.70;4.20;;;12.80;99.90;;;;;;5094899;28;20206;-67
2022/04/06 08:00:25;;;;;;;4.30;3.90;;;13.00;99.90;;;;;;5093780;28;20225;-67
2022/04/06 08:02:52;;;;;;;3.65;3.35;;;13.10;99.90;;;;;;5094750;28;20229;-67
2022/04/06 08:05:20;;;;;;;3.80;3.50;;;13.20;99.90;;;;;;5094461;28;20221;-67
2022/04/06 08:07:50;;;;;;;4.25;3.60;;;13.40;99.90;;;;;;5094330;28;20208;-67
2022/04/06 08:10:18;;;;;;;3.72;3.42;;;13.50;99.90;;;;;;5094612;28;20253;-67
2022/04/06 08:12:46;;;;;;;3.72;3.42;;;13.50;99.90;;;;;;5094534;28;20204;-67
2022/04/06 08:15:14;;;;;;;3.47;3.20;;;13.50;99.90;;;;;;5094357;28;20198;-68
2022/04/06 08:17:43;;;;;;;3.22;2.90;;;13.50;99.90;;;;;;5094481;28;20592;-67
2022/04/06 08:20:12;;;;;;;3.35;3.05;;;13.60;99.90;;;;;;5094342;28;20227;-68
2022/04/06 08:22:39;;;;;;;3.55;3.25;;;13.80;99.90;;;;;;5094375;28;20252;-67
2022/04/06 08:25:07;;;;;;;3.38;2.90;;;13.80;99.90;;;;;;5094129;28;20626;-68
2022/04/06 08:27:36;;;;;;;3.08;2.88;;;13.90;99.90;;;;;;5094012;28;20217;-67
2022/04/06 08:30:04;;;;;;;3.05;2.85;;;13.80;99.90;;;;;;5093936;28;20313;-67
2022/04/06 08:32:31;;;;;;;2.78;2.58;;;13.80;99.90;;;;;;5094290;28;20210;-67
2022/04/06 08:34:58;;;;;;;2.55;2.35;;;13.90;99.90;;;;;;5093740;28;20573;-67
2022/04/06 08:37:25;;;;;;;2.55;2.35;;;14.10;99.90;;;;;;5094130;28;20293;-67
2022/04/06 08:39:52;;;;;;;2.40;2.20;;;14.10;99.90;;;;;;5094055;28;20572;-67
2022/04/06 08:42:19;;;;;;;2.40;2.20;;;14.10;99.90;;;;;;5094122;28;20217;-67
2022/04/06 08:44:46;;;;;;;2.10;2.00;;;14.10;99.90;;;;;;5093713;28;20222;-67
2022/04/06 08:47:15;;;;;;;1.90;1.80;;;14.00;99.90;;;;;;5093960;28;20208;-67
2022/04/06 08:49:43;;;;;;;2.15;1.95;;;13.90;99.90;;;;;;5093922;28;20261;-67
2022/04/06 08:52:11;;;;;;;2.28;2.08;;;13.80;99.90;;;;;;5093687;28;20202;-67
2022/04/06 08:54:39;;;;;;;2.20;2.00;;;13.80;99.90;;;;;;5093788;28;20251;-67
2022/04/06 08:57:06;;;;;;;2.55;2.35;;;13.90;99.90;;;;;;5093845;28;20202;-67
2022/04/06 08:59:33;;;;;;;1.83;1.73;;;13.90;99.90;;;;;;5093702;28;20223;-67
2022/04/06 09:02:00;;;;;;;1.30;1.20;;;13.80;99.90;;;;;;5093784;28;20203;-67
2022/04/06 09:04:31;;;;;;;1.38;1.27;;;14.00;99.90;;;;;;5093603;28;20231;-67
2022/04/06 09:07:08;;;;;;;1.60;1.50;;;14.20;99.90;;;;;;5093831;28;20203;-67
2022/04/06 09:09:37;;;;;;;1.40;1.30;;;14.40;99.90;;;;;;5093936;28;20227;-67
2022/04/06 09:12:08;;;;;;;1.17;1.08;;;14.50;99.90;;;;;;5092974;28;20200;-67
2022/04/06 09:14:35;;;;;;;1.30;1.20;;;14.70;99.90;;;;;;5093339;28;20204;-68
2022/04/06 09:17:03;;;;;;;0.93;0.90;;;15.00;99.90;;;;;;5093651;28;20665;-67
2022/04/06 09:19:32;;;;;;;1.10;1.00;;;15.10;99.70;;;;;;5093495;28;20227;-67
2022/04/06 09:21:58;;;;;;;0.80;0.80;;;15.20;99.00;;;;;;5093678;28;20205;-67
2022/04/06 09:24:26;;;;;;;1.00;1.00;;;15.40;98.20;;;;;;5093275;28;20555;-67
2022/04/06 09:26:57;;;;;;;1.50;0.93;;;15.60;98.00;;;;;;5093269;28;20220;-67
2022/04/06 09:29:24;;;;;;;1.30;1.20;;;15.80;96.60;;;;;;5093569;28;20232;-67
2022/04/06 09:31:51;;;;;;;3.42;1.10;;;15.80;96.40;;;;;;5093587;28;20258;-67
2022/04/06 09:34:21;;;;;;;0.80;0.80;;;15.80;95.40;;;;;;5093139;28;20670;-67
2022/04/06 09:36:56;;;;;;;0.80;0.80;;;15.80;95.20;;;;;;5093571;28;20204;-67
2022/04/06 09:39:41;;;;;;;1.23;0.80;;;15.60;95.10;;;;;;5093408;28;20697;-67
2022/04/06 09:42:08;;;;;;;0.70;0.70;;;15.40;95.30;;;;;;5093229;28;20216;-67
2022/04/06 09:47:39;;;;;;;0.88;0.88;;;15.30;96.50;;;;;;5093415;28;20215;-67
2022/04/06 09:50:15;;;;;;;0.85;0.80;;;15.80;96.40;;;;;;5093414;28;20235;-67
2022/04/06 09:52:44;;;;;;;0.80;0.80;;;16.20;94.40;;;;;;5093132;28;20200;-67
2022/04/06 09:55:13;;;;;;;0.63;0.63;;;16.20;93.00;;;;;;5093029;28;20208;-68
2022/04/06 09:57:42;;;;;;;1.02;0.80;;;16.30;92.60;;;;;;5093251;28;20220;-67
2022/04/06 10:00:12;;;;;;;0.98;0.80;;;16.40;92.60;;;;;;5093202;28;20233;-68
2022/04/06 10:02:41;;;;;;;0.70;0.70;;;16.90;91.10;;;;;;5093226;28;20206;-67
2022/04/06 10:05:12;;;;;;;1.30;0.60;;;17.30;90.90;;;;;;5093002;28;20225;-67
2022/04/06 10:07:40;;;;;;;0.70;0.70;;;17.80;88.90;;;;;;5094136;28;20190;-68
2022/04/06 10:10:08;;;;;;;1.13;0.60;;;18.00;87.60;;;;;;5092999;28;20233;-68
2022/04/06 10:12:36;;;;;;;0.80;0.80;;;18.20;85.60;;;;;;5093214;28;20440;-68
2022/04/06 10:15:05;;;;;;;0.77;0.77;;;18.10;86.20;;;;;;5092741;28;20228;-68
2022/04/06 10:17:33;;;;;;;1.70;1.13;;;18.00;85.20;;;;;;5093091;28;20202;-68
2022/04/06 10:20:07;;;;;;;0.97;0.63;;;18.20;84.00;;;;;;5092755;28;20227;-67
2022/04/06 10:22:43;;;;;;;0.73;0.65;;;18.40;80.30;;;;;;5093590;28;20515;-67
2022/04/06 10:25:17;;;;;;;0.77;0.75;;;18.40;80.60;;;;;;5096453;28;20300;-68
2022/04/06 10:27:51;;;;;;;0.80;0.60;;;17.90;81.10;;;;;;5096433;28;20213;-67
2022/04/06 10:30:22;;;;;;;0.80;0.80;;;17.40;83.60;;;;;;5096587;28;20584;-67
2022/04/06 10:32:50;;;;;;;0.60;0.60;;;17.70;84.60;;;;;;5096385;28;20251;-67
2022/04/06 10:35:18;;;;;;;0.60;0.60;;;18.10;82.20;;;;;;5096340;28;20203;-68
2022/04/06 10:37:54;;;;;;;0.87;0.60;;;18.60;80.90;;;;;;5096371;28;20443;-67
2022/04/06 10:40:23;;;;;;;3.23;0.70;;;19.60;79.60;;;;;;5096640;28;20472;-68
2022/04/06 10:42:50;;;;;;;1.27;0.90;;;20.20;75.50;;;;;;5096157;28;20436;-68
2022/04/06 10:45:36;;;;;;;0.60;0.60;;;20.50;73.60;;;;;;5096041;28;20443;-68
2022/04/06 10:48:10;;;;;;;0.60;0.60;;;20.70;72.10;;;;;;5096152;28;20934;-68
2022/04/06 10:50:38;;;;;;;0.87;0.60;;;20.30;72.70;;;;;;5095829;28;21032;-67
2022/04/06 10:53:27;;;;;;;0.67;0.67;;;20.30;72.20;;;;;;5095979;28;20447;-68
2022/04/06 10:55:59;;;;;;;0.77;0.77;;;20.30;70.40;;;;;;5095923;28;20508;-68
2022/04/06 10:58:26;;;;;;;0.67;0.67;;;20.60;71.00;;;;;;5095989;28;20446;-68
2022/04/06 11:01:16;;;;;;;0.50;0.50;;;20.70;66.80;;;;;;5095695;28;20472;-68
2022/04/06 11:03:56;;;;;;;1.10;0.73;;;20.60;67.50;;;;;;5095669;28;20443;-68
2022/04/06 11:06:49;;;;;;;0.60;0.60;;;21.20;67.40;;;;;;5095827;28;20503;-68
2022/04/06 11:12:11;;;;;;;0.50;0.50;;;21.60;64.50;;;;;;5079697;28;20437;-67
2022/04/06 11:14:39;;;;;;;0.80;0.80;;;21.50;62.00;;;;;;5074119;28;20495;-65
2022/04/06 11:17:38;;;;;;;0.93;0.90;;;21.90;63.10;;;;;;5074301;28;20537;-66
2022/04/06 11:20:08;;;;;;;0.70;0.70;;;22.00;61.00;;;;;;5074138;28;20867;-67
2022/04/06 11:22:35;;;;;;;0.50;0.50;;;22.70;59.00;;;;;;5073852;28;20786;-66
2022/04/06 11:25:06;;;;;;;0.60;0.60;;;23.10;57.70;;;;;;5073713;28;20444;-68
2022/04/06 11:27:36;;;;;;;0.70;0.70;;;23.40;56.40;;;;;;5074129;28;20856;-68
2022/04/06 11:30:05;;;;;;;2.40;2.30;;;23.10;57.10;;;;;;5073648;28;20474;-68
2022/04/06 11:32:33;;;;;;;0.60;0.60;;;22.50;57.50;;;;;;5073568;28;20456;-64
2022/04/06 11:35:01;;;;;;;2.30;0.70;;;21.90;57.40;;;;;;5072791;28;20441;-66
2022/04/06 11:37:28;;;;;;;1.37;0.80;;;21.70;59.10;;;;;;5073888;28;20953;-65
2022/04/06 11:40:01;;;;;;;0.60;0.60;;;21.50;59.00;;;;;;5073701;28;20469;-65
2022/04/06 11:42:28;;;;;;;0.90;0.70;;;21.90;61.00;;;;;;5073176;28;20824;-66
2022/04/06 11:44:57;;;;;;;0.70;0.70;;;21.80;59.00;;;;;;5073387;28;20529;-66
2022/04/06 11:47:28;;;;;;;0.70;0.70;;;21.50;58.60;;;;;;5073796;28;20483;-66
2022/04/06 11:49:55;;;;;;;0.70;0.70;;;21.20;60.00;;;;;;5073592;28;20465;-66
2022/04/06 11:52:22;;;;;;;0.97;0.90;;;20.70;61.30;;;;;;5073044;28;20452;-66
2022/04/06 11:54:53;;;;;;;1.10;0.93;;;19.80;62.30;;;;;;5073346;28;20541;-65
2022/04/06 11:57:21;;;;;;;0.87;0.87;;;19.40;63.90;;;;;;5073880;28;20454;-65
2022/04/06 11:59:56;;;;;;;1.07;0.80;;;19.00;65.80;;;;;;5073725;28;20466;-66
2022/04/06 12:02:23;;;;;;;1.17;1.17;;;18.90;68.00;;;;;;5072809;28;20946;-65
2022/04/06 12:05:00;;;;;;;1.45;0.90;;;18.70;67.50;;;;;;5073096;28;20440;-68
2022/04/06 12:07:27;;;;;;;0.60;0.57;;;18.40;67.80;;;;;;5073057;28;20218;-68
2022/04/06 12:09:54;;;;;;;1.60;0.80;;;18.20;68.70;;;;;;5073351;28;20314;-68
2022/04/06 12:12:22;;;;;;;1.23;0.90;;;17.90;70.00;;;;;;5072832;28;20597;-68
2022/04/06 12:14:49;;;;;;;0.88;0.85;;;17.70;70.60;;;;;;5072794;28;20514;-68
2022/04/06 12:17:18;;;;;;;0.80;0.80;;;17.70;72.30;;;;;;5073308;28;20585;-66
2022/04/06 12:19:45;;;;;;;0.80;0.80;;;17.70;72.60;;;;;;5072896;28;20218;-66
2022/04/06 12:22:12;;;;;;;0.93;0.60;;;17.70;69.80;;;;;;5073002;28;20687;-67
2022/04/06 12:24:40;;;;;;;1.02;0.60;;;17.70;68.50;;;;;;5072751;28;20195;-66
2022/04/06 12:27:07;;;;;;;0.50;0.50;;;17.70;68.00;;;;;;5072927;28;20605;-66
2022/04/06 12:29:35;;;;;;;0.57;0.57;;;17.90;67.70;;;;;;5073212;28;20225;-66
2022/04/06 12:32:04;;;;;;;0.60;0.60;;;17.70;68.10;;;;;;5072854;28;20203;-66
2022/04/06 12:34:35;;;;;;;1.20;0.82;;;17.90;67.80;;;;;;5072146;28;20738;-67
2022/04/06 12:37:29;;;;;;;0.85;0.63;;;17.90;68.20;;;;;;5072876;28;20202;-66
2022/04/06 12:39:51;;;;;;;0.60;0.60;;;18.00;68.20;;;;;;5072598;28;20473;-66
2022/04/06 12:42:18;;;;;;;0.50;0.50;;;17.80;66.50;;;;;;5072620;28;20209;-66
2022/04/06 12:44:56;;;;;;;1.15;0.70;;;17.60;67.70;;;;;;5072528;28;20199;-66
2022/04/06 12:47:24;;;;;;;1.48;0.60;;;17.60;67.20;;;;;;5073025;28;20207;-66
2022/04/06 12:49:52;;;;;;;1.40;0.60;;;17.70;67.60;;;;;;5072568;28;20230;-66
2022/04/06 12:52:20;;;;;;;1.17;0.60;;;17.80;67.20;;;;;;5072690;28;20569;-66
2022/04/06 12:54:49;;;;;;;0.70;0.70;;;17.70;66.30;;;;;;5072305;28;20317;-68
2022/04/06 12:57:18;;;;;;;0.63;0.63;;;17.70;67.10;;;;;;5072386;28;20199;-67
2022/04/06 12:59:56;;;;;;;0.73;0.73;;;17.60;67.40;;;;;;5072619;28;20817;-68
2022/04/06 13:02:28;;;;;;;0.70;0.70;;;17.50;69.00;;;;;;5072538;28;20209;-67
2022/04/06 13:04:59;;;;;;;2.88;0.98;;;17.70;68.00;;;;;;5072512;28;20199;-68